地図

経路データ

SID SEASON NUMBER BASIN SUBBASIN NAME ISO_TIME NATURE LAT LON WMO_WIND WMO_PRES WMO_AGENCY TRACK_TYPE DIST2LAND LANDFALL IFLAG USA_AGENCY USA_ATCF_ID USA_LAT USA_LON USA_RECORD USA_STATUS USA_WIND USA_PRES USA_SSHS USA_R34_NE USA_R34_SE USA_R34_SW USA_R34_NW USA_R50_NE USA_R50_SE USA_R50_SW USA_R50_NW USA_R64_NE USA_R64_SE USA_R64_SW USA_R64_NW USA_POCI USA_ROCI USA_RMW USA_EYE TOKYO_LAT TOKYO_LON TOKYO_GRADE TOKYO_WIND TOKYO_PRES TOKYO_R50_DIR TOKYO_R50_LONG TOKYO_R50_SHORT TOKYO_R30_DIR TOKYO_R30_LONG TOKYO_R30_SHORT TOKYO_LAND CMA_LAT CMA_LON CMA_CAT CMA_WIND CMA_PRES HKO_LAT HKO_LON HKO_CAT HKO_WIND HKO_PRES NEWDELHI_LAT NEWDELHI_LON NEWDELHI_GRADE NEWDELHI_WIND NEWDELHI_PRES NEWDELHI_CI NEWDELHI_DP NEWDELHI_POCI REUNION_LAT REUNION_LON REUNION_TYPE REUNION_WIND REUNION_PRES REUNION_TNUM REUNION_CI REUNION_RMW REUNION_R34_NE REUNION_R34_SE REUNION_R34_SW REUNION_R34_NW REUNION_R50_NE REUNION_R50_SE REUNION_R50_SW REUNION_R50_NW REUNION_R64_NE REUNION_R64_SE REUNION_R64_SW REUNION_R64_NW BOM_LAT BOM_LON BOM_TYPE BOM_WIND BOM_PRES BOM_TNUM BOM_CI BOM_RMW BOM_R34_NE BOM_R34_SE BOM_R34_SW BOM_R34_NW BOM_R50_NE BOM_R50_SE BOM_R50_SW BOM_R50_NW BOM_R64_NE BOM_R64_SE BOM_R64_SW BOM_R64_NW BOM_ROCI BOM_POCI BOM_EYE BOM_POS_METHOD BOM_PRES_METHOD NADI_LAT NADI_LON NADI_CAT NADI_WIND NADI_PRES WELLINGTON_LAT WELLINGTON_LON WELLINGTON_WIND WELLINGTON_PRES DS824_LAT DS824_LON DS824_STAGE DS824_WIND DS824_PRES TD9636_LAT TD9636_LON TD9636_STAGE TD9636_WIND TD9636_PRES TD9635_LAT TD9635_LON TD9635_WIND TD9635_PRES TD9635_ROCI NEUMANN_LAT NEUMANN_LON NEUMANN_CLASS NEUMANN_WIND NEUMANN_PRES MLC_LAT MLC_LON MLC_CLASS MLC_WIND MLC_PRES USA_GUST BOM_GUST BOM_GUST_PER REUNION_GUST REUNION_GUST_PER USA_SEAHGT USA_SEARAD_NE USA_SEARAD_SE USA_SEARAD_SW USA_SEARAD_NW STORM_SPEED STORM_DIR
1911223N13147 1911 50 WP MM NOT_NAMED 1911-08-11 09:00:00 NR 13.2000 146.700 main 1714 1714 __________O___ -1 13.2000 146.700 4 10 289
1911223N13147 1911 50 WP MM NOT_NAMED 1911-08-11 12:00:00 NR 13.3723 146.193 main 1737 1737 __________P___ -1 13.3723 146.193 4 11 289
1911223N13147 1911 50 WP MM NOT_NAMED 1911-08-11 15:00:00 NR 13.5553 145.668 main 1761 1761 __________P___ -1 13.5553 145.668 4 11 290
1911223N13147 1911 50 WP MM NOT_NAMED 1911-08-11 18:00:00 NR 13.7607 145.109 main 1789 1789 __________P___ -1 13.7607 145.109 4 12 291
1911223N13147 1911 50 WP MM NOT_NAMED 1911-08-11 21:00:00 NR 14.0000 144.500 main 1818 1818 __________O___ -1 14.0000 144.500 4 14 293
1911223N13147 1911 50 WP MM NOT_NAMED 1911-08-12 00:00:00 NR 14.2825 143.829 main 1863 1863 __________P___ -1 14.2825 143.829 4 15 294
1911223N13147 1911 50 WP MM NOT_NAMED 1911-08-12 03:00:00 NR 14.6099 143.109 main 1893 1851 __________P___ -1 14.6099 143.109 4 16 296
1911223N13147 1911 50 WP MM NOT_NAMED 1911-08-12 06:00:00 NR 14.9823 142.360 main 1853 1775 __________P___ -1 14.9823 142.360 4 17 298
1911223N13147 1911 50 WP MM NOT_NAMED 1911-08-12 09:00:00 NR 15.4000 141.600 main 1775 1709 __________O___ -1 15.4000 141.600 4 16 300
1911223N13147 1911 50 WP MM NOT_NAMED 1911-08-12 12:00:00 NR 15.7905 140.890 main 1709 1646 __________P___ -1 15.7905 140.890 4 16 301
1911223N13147 1911 50 WP MM NOT_NAMED 1911-08-12 15:00:00 NR 16.2329 140.169 main 1646 1589 __________P___ -1 16.2329 140.169 4 17 304
1911223N13147 1911 50 WP MM NOT_NAMED 1911-08-12 18:00:00 NR 16.7589 139.414 main 1582 1523 __________P___ -1 16.7589 139.414 4 19 308
1911223N13147 1911 50 WP MM NOT_NAMED 1911-08-12 21:00:00 NR 17.4000 138.600 main 1523 1466 __________O___ -1 17.4000 138.600 4 22 310
1911223N13147 1911 50 WP MM NOT_NAMED 1911-08-13 00:00:00 NR 18.1946 137.652 main 1471 1420 __________P___ -1 18.1946 137.652 4 25 312
1911223N13147 1911 50 WP MM NOT_NAMED 1911-08-13 03:00:00 NR 19.0975 136.646 main 1416 1326 __________P___ -1 19.0975 136.646 4 27 314
1911223N13147 1911 50 WP MM NOT_NAMED 1911-08-13 06:00:00 NR 20.0512 135.642 main 1312 1196 __________P___ -1 20.0512 135.642 4 26 316
1911223N13147 1911 50 WP MM NOT_NAMED 1911-08-13 09:00:00 NR 21.0000 134.700 main 1185 1075 __________O___ -1 21.0000 134.700 4 24 317
1911223N13147 1911 50 WP MM NOT_NAMED 1911-08-13 12:00:00 NR 21.8420 133.871 main 1075 970 __________P___ -1 21.8420 133.871 4 22 319
1911223N13147 1911 50 WP MM NOT_NAMED 1911-08-13 15:00:00 NR 22.6752 133.117 main 956 856 __________P___ -1 22.6752 133.117 4 21 322
1911223N13147 1911 50 WP MM NOT_NAMED 1911-08-13 18:00:00 NR 23.5208 132.430 main 854 755 __________P___ -1 23.5208 132.430 4 21 325
1911223N13147 1911 50 WP MM NOT_NAMED 1911-08-13 21:00:00 NR 24.4000 131.800 main 744 637 __________O___ -1 24.4000 131.800 4 22 326
1911223N13147 1911 50 WP MM NOT_NAMED 1911-08-14 00:00:00 NR 25.3796 131.063 main 626 525 __________P___ -1 25.3796 131.063 4 24 327
1911223N13147 1911 50 WP MM NOT_NAMED 1911-08-14 03:00:00 NR 26.3875 130.395 main 514 420 __________P___ -1 26.3875 130.395 4 23 332
1911223N13147 1911 50 WP MM NOT_NAMED 1911-08-14 06:00:00 NR 27.3765 129.878 main 409 319 __________P___ -1 27.3765 129.878 4 20 340
1911223N13147 1911 50 WP MM NOT_NAMED 1911-08-14 09:00:00 NR 28.3000 129.600 main 319 236 __________O___ -1 28.3000 129.600 4 18 353
1911223N13147 1911 50 WP MM NOT_NAMED 1911-08-14 12:00:00 NR 29.1400 129.645 main 236 144 __________P___ -1 29.1400 129.645 4 16 10
1911223N13147 1911 50 WP MM NOT_NAMED 1911-08-14 15:00:00 NR 29.9061 129.939 main 144 53 __________P___ -1 29.9061 129.939 4 16 24
1911223N13147 1911 50 WP MM NOT_NAMED 1911-08-14 18:00:00 NR 30.5941 130.390 main 53 0 __________P___ -1 30.5941 130.390 4 15 33
1911223N13147 1911 50 WP MM NOT_NAMED 1911-08-14 21:00:00 NR 31.2000 130.900 main 0 0 __________O___ -1 31.2000 130.900 4 14 35
1911223N13147 1911 50 WP MM NOT_NAMED 1911-08-15 00:00:00 NR 31.6961 131.298 main 0 0 __________P___ -1 31.6961 131.298 4 12 37
1911223N13147 1911 50 WP MM NOT_NAMED 1911-08-15 03:00:00 NR 32.1217 131.731 main 18 18 __________P___ -1 32.1217 131.731 4 11 42
1911223N13147 1911 50 WP MM NOT_NAMED 1911-08-15 06:00:00 NR 32.5364 132.198 main 35 0 __________P___ -1 32.5364 132.198 4 12 43
1911223N13147 1911 50 WP MM NOT_NAMED 1911-08-15 09:00:00 NR 33.0000 132.700 main 0 0 __________O___ -1 33.0000 132.700 4 12 38
1911223N13147 1911 50 WP MM NOT_NAMED 1911-08-15 12:00:00 NR 33.5125 133.094 main 0 0 __________P___ -1 33.5125 133.094 4 13 33
1911223N13147 1911 50 WP MM NOT_NAMED 1911-08-15 15:00:00 NR 34.0930 133.543 main 11 0 __________P___ -1 34.0930 133.543 4 15 34
1911223N13147 1911 50 WP MM NOT_NAMED 1911-08-15 18:00:00 NR 34.7775 134.143 main 0 0 __________P___ -1 34.7775 134.143 4 19 38
1911223N13147 1911 50 WP MM NOT_NAMED 1911-08-15 21:00:00 NR 35.6000 135.000 main 0 0 __________O___ -1 35.6000 135.000 4 24 41
1911223N13147 1911 50 WP MM NOT_NAMED 1911-08-16 00:00:00 NR 36.5826 136.096 main 33 0 __________P___ -1 36.5826 136.096 4 29 44
1911223N13147 1911 50 WP MM NOT_NAMED 1911-08-16 03:00:00 NR 37.6867 137.497 main 42 41 __________P___ -1 37.6867 137.497 4 34 48
1911223N13147 1911 50 WP MM NOT_NAMED 1911-08-16 06:00:00 NR 38.8479 139.225 main 34 0 __________P___ -1 38.8479 139.225 4 38 52
1911223N13147 1911 50 WP MM NOT_NAMED 1911-08-16 09:00:00 NR 40.0000 141.300 main 0 0 __________O___ -1 40.0000 141.300 4 41 57
1911223N13147 1911 50 WP MM NOT_NAMED 1911-08-16 12:00:00 NR 41.0848 143.732 main 98 98 __________P___ -1 41.0848 143.732 4 44 62
1911223N13147 1911 50 WP MM NOT_NAMED 1911-08-16 15:00:00 NR 42.0839 146.474 main 146 146 __________P___ -1 42.0839 146.474 4 46 66
1911223N13147 1911 50 WP MM NOT_NAMED 1911-08-16 18:00:00 NR 42.9899 149.457 main 251 251 __________P___ -1 42.9899 149.457 4 48 69
1911223N13147 1911 50 WP MM NOT_NAMED 1911-08-16 21:00:00 NR 43.8000 152.600 main 301 __________O___ -1 43.8000 152.600 4 48 70

デジタル台風データ・検索

IBTrACS Databaseについて

本データベースは、米国NOAAが公開する1842年以降の世界の熱帯低気圧のベストトラックデータアーカイブInternational Best Track Archive for Climate Stewardship (IBTrACS)を、ウェブで閲覧しやすい形式に変換したものです。

最終更新日:2021-10-21